createdAt,value
2023-02-17T00:01:10.079Z,50.00
2023-02-17T00:03:36.589Z,49.91
2023-02-17T00:06:06.402Z,50.06
2023-02-17T00:08:33.013Z,49.78
2023-02-17T00:11:01.165Z,49.97
2023-02-17T00:13:27.832Z,49.89
2023-02-17T00:15:55.850Z,49.95
2023-02-17T00:18:23.353Z,49.87
2023-02-17T00:20:50.265Z,50.12
2023-02-17T00:23:17.221Z,49.97
2023-02-17T00:25:43.917Z,49.89
2023-02-17T00:28:10.472Z,49.93
2023-02-17T00:30:38.222Z,49.91
2023-02-17T00:33:06.350Z,50.14
2023-02-17T00:35:32.925Z,50.09
2023-02-17T00:37:59.737Z,50.04
2023-02-17T00:40:26.919Z,49.99
2023-02-17T00:42:53.452Z,50.17
2023-02-17T00:45:20.033Z,49.98
2023-02-17T00:47:46.627Z,49.96
2023-02-17T00:50:14.442Z,49.93
2023-02-17T00:52:41.247Z,50.06
2023-02-17T00:55:08.186Z,49.98
2023-02-17T00:57:34.786Z,49.99
2023-02-17T01:00:01.299Z,49.81
2023-02-17T01:02:27.839Z,50.02
2023-02-17T01:04:54.517Z,50.13
2023-02-17T01:07:22.424Z,50.20
2023-02-17T01:09:48.932Z,50.11
2023-02-17T01:12:15.600Z,50.31
2023-02-17T01:14:42.133Z,50.19
2023-02-17T01:17:08.686Z,50.38
2023-02-17T01:19:35.214Z,50.16
2023-02-17T01:22:01.718Z,50.18
2023-02-17T01:24:29.620Z,49.95
2023-02-17T01:26:56.211Z,50.04
2023-02-17T01:29:22.791Z,50.04
2023-02-17T01:31:49.392Z,50.00
2023-02-17T01:34:15.898Z,50.04
2023-02-17T01:36:42.439Z,49.99
2023-02-17T01:39:10.659Z,50.37
2023-02-17T01:41:38.461Z,50.34
2023-02-17T01:44:10.664Z,50.05
2023-02-17T01:46:38.681Z,50.25
2023-02-17T01:49:17.666Z,50.13
2023-02-17T01:51:47.091Z,50.41
2023-02-17T01:54:18.354Z,50.18
2023-02-17T01:56:48.315Z,50.23
2023-02-17T01:59:18.586Z,50.35
2023-02-17T02:01:46.015Z,50.24
2023-02-17T02:04:14.927Z,50.27
2023-02-17T02:06:43.649Z,50.18
2023-02-17T02:09:16.372Z,50.35
2023-02-17T02:11:42.871Z,50.31
2023-02-17T02:14:11.580Z,50.44
2023-02-17T02:16:45.407Z,50.14
2023-02-17T02:19:30.111Z,49.94
2023-02-17T02:22:18.151Z,50.40
2023-02-17T02:24:59.214Z,50.44
2023-02-17T02:27:40.115Z,50.19
2023-02-17T02:30:26.570Z,50.01
2023-02-17T02:33:05.049Z,50.03
2023-02-17T02:35:40.529Z,50.13
2023-02-17T02:38:14.501Z,50.25
2023-02-17T02:40:43.243Z,50.36
2023-02-17T02:43:10.142Z,50.35
2023-02-17T02:45:36.978Z,50.44
2023-02-17T02:48:05.076Z,50.16
2023-02-17T02:50:47.775Z,50.30
2023-02-17T02:53:33.778Z,50.25
2023-02-17T02:56:10.950Z,50.53
2023-02-17T02:58:47.451Z,50.62
2023-02-17T03:01:30.011Z,50.39
2023-02-17T03:04:07.369Z,50.37
2023-02-17T03:06:41.370Z,50.32
2023-02-17T03:09:10.301Z,50.45
2023-02-17T03:11:36.895Z,50.32
2023-02-17T03:14:05.308Z,50.22
2023-02-17T03:16:33.771Z,50.33
2023-02-17T03:19:01.805Z,50.42
2023-02-17T03:21:33.923Z,50.39
2023-02-17T03:24:00.607Z,50.46
2023-02-17T03:26:27.101Z,50.44
2023-02-17T03:28:53.609Z,50.39
2023-02-17T03:31:20.317Z,50.50
2023-02-17T03:33:47.032Z,50.62
2023-02-17T03:36:14.949Z,50.65
2023-02-17T03:38:41.461Z,50.27
2023-02-17T03:41:08.309Z,50.25
2023-02-17T03:43:34.845Z,50.21
2023-02-17T03:46:01.377Z,50.59
2023-02-17T03:48:28.009Z,50.48
2023-02-17T03:50:54.526Z,50.72
2023-02-17T03:53:22.270Z,50.53
2023-02-17T03:55:49.054Z,50.39
2023-02-17T03:58:15.543Z,50.60
2023-02-17T04:00:42.075Z,50.48
2023-02-17T04:03:08.670Z,50.54
2023-02-17T04:05:35.289Z,50.44
2023-02-17T04:08:01.887Z,50.33
2023-02-17T04:10:29.718Z,50.46
2023-02-17T04:12:56.256Z,50.35
2023-02-17T04:15:22.785Z,50.52
2023-02-17T04:17:49.311Z,50.67
2023-02-17T04:20:15.860Z,50.53
2023-02-17T04:22:42.377Z,50.54
2023-02-17T04:25:08.925Z,50.62
2023-02-17T04:27:36.782Z,50.66
2023-02-17T04:30:04.385Z,50.38
2023-02-17T04:32:30.924Z,50.61
2023-02-17T04:34:57.417Z,50.50
2023-02-17T04:37:24.032Z,50.43
2023-02-17T04:39:50.619Z,50.68
2023-02-17T04:42:17.139Z,50.65
2023-02-17T04:44:44.961Z,50.56
2023-02-17T04:47:11.981Z,50.56
2023-02-17T04:49:38.588Z,50.52
2023-02-17T04:52:05.736Z,50.61
2023-02-17T04:54:32.428Z,50.66
2023-02-17T04:56:59.107Z,50.46
2023-02-17T04:59:25.889Z,50.80
2023-02-17T05:01:53.875Z,50.53
2023-02-17T05:04:20.419Z,50.67
2023-02-17T05:06:46.940Z,50.68
2023-02-17T05:09:13.605Z,50.45
2023-02-17T05:11:40.206Z,50.67
2023-02-17T05:14:06.678Z,50.90
2023-02-17T05:16:33.174Z,50.88
2023-02-17T05:19:00.986Z,50.62
2023-02-17T05:21:27.516Z,50.54
2023-02-17T05:23:53.975Z,50.67
2023-02-17T05:26:20.497Z,50.83
2023-02-17T05:28:47.060Z,50.52
2023-02-17T05:31:13.687Z,50.69
2023-02-17T05:33:40.272Z,50.58
2023-02-17T05:36:10.499Z,50.67
2023-02-17T05:38:38.012Z,50.63
2023-02-17T05:41:05.305Z,50.52
2023-02-17T05:43:32.504Z,50.73
2023-02-17T05:46:01.981Z,50.73
2023-02-17T05:48:28.617Z,50.41
2023-02-17T05:50:55.130Z,50.75
2023-02-17T05:53:22.889Z,50.64
2023-02-17T05:55:49.422Z,50.63
2023-02-17T05:58:16.089Z,50.70
2023-02-17T06:00:42.839Z,50.67
2023-02-17T06:03:09.602Z,50.78
2023-02-17T06:05:36.284Z,50.68
2023-02-17T06:08:02.910Z,50.54
2023-02-17T06:10:30.821Z,50.62
2023-02-17T06:12:57.481Z,50.61
2023-02-17T06:15:24.342Z,50.66
2023-02-17T06:17:50.874Z,50.59
2023-02-17T06:20:17.386Z,50.66
2023-02-17T06:22:44.127Z,50.83
2023-02-17T06:25:10.672Z,50.78
2023-02-17T06:27:38.511Z,50.60
2023-02-17T06:30:05.975Z,50.99
2023-02-17T06:32:32.522Z,50.86
2023-02-17T06:34:59.028Z,50.70
2023-02-17T06:37:25.537Z,50.54
2023-02-17T06:39:52.049Z,50.78
2023-02-17T06:42:18.524Z,50.65
2023-02-17T06:44:46.473Z,50.43
2023-02-17T06:47:13.071Z,50.82
2023-02-17T06:49:40.834Z,50.95
2023-02-17T06:52:07.823Z,50.94
2023-02-17T06:54:34.362Z,50.59
2023-02-17T06:57:00.856Z,50.76
2023-02-17T06:59:27.430Z,50.78
2023-02-17T07:01:55.294Z,50.67
2023-02-17T07:04:21.860Z,50.66
2023-02-17T07:06:48.373Z,50.95
2023-02-17T07:09:14.894Z,50.92
2023-02-17T07:11:41.513Z,50.76
2023-02-17T07:14:08.026Z,50.83
2023-02-17T07:16:34.830Z,50.70
2023-02-17T07:19:02.835Z,50.87
2023-02-17T07:21:29.304Z,50.88
2023-02-17T07:23:55.898Z,50.66
2023-02-17T07:26:22.700Z,50.75
2023-02-17T07:28:49.154Z,50.84
2023-02-17T07:31:17.558Z,50.82
2023-02-17T07:33:44.581Z,50.77
2023-02-17T07:36:14.279Z,50.79
2023-02-17T07:38:42.716Z,50.94
2023-02-17T07:41:11.976Z,51.10
2023-02-17T07:43:38.846Z,50.98
2023-02-17T07:46:07.473Z,50.99
2023-02-17T07:48:34.778Z,50.75
2023-02-17T07:51:05.340Z,51.01
2023-02-17T07:53:33.992Z,50.91
2023-02-17T07:56:02.876Z,50.83
2023-02-17T07:58:31.721Z,50.87
2023-02-17T08:00:58.510Z,51.07
2023-02-17T08:03:24.996Z,50.83
2023-02-17T08:05:51.487Z,50.98
2023-02-17T08:08:18.008Z,50.89
2023-02-17T08:10:45.871Z,50.80
2023-02-17T08:13:12.352Z,51.39
2023-02-17T08:15:38.899Z,51.08
2023-02-17T08:18:05.462Z,51.03
2023-02-17T08:20:34.232Z,51.32
2023-02-17T08:23:01.841Z,51.38
2023-02-17T08:25:31.472Z,51.19
2023-02-17T08:27:59.224Z,51.30
2023-02-17T08:30:25.964Z,51.08
2023-02-17T08:32:52.492Z,51.17
2023-02-17T08:35:19.093Z,51.23
2023-02-17T08:37:45.620Z,51.35
2023-02-17T08:40:12.280Z,51.30
2023-02-17T08:42:38.897Z,51.41
2023-02-17T08:45:07.469Z,51.17
2023-02-17T08:47:34.650Z,51.43
2023-02-17T08:50:01.486Z,51.52
2023-02-17T08:52:28.433Z,51.49
2023-02-17T08:54:55.281Z,51.52
2023-02-17T08:57:21.996Z,51.47
2023-02-17T08:59:48.794Z,51.60
2023-02-17T09:02:17.009Z,51.42
2023-02-17T09:04:43.870Z,51.50
2023-02-17T09:07:13.217Z,51.36
2023-02-17T09:09:40.833Z,51.58
2023-02-17T09:12:07.761Z,51.20
2023-02-17T09:14:34.754Z,51.65
2023-02-17T09:17:01.369Z,51.53
2023-02-17T09:19:29.126Z,51.72
2023-02-17T09:21:56.245Z,51.28
2023-02-17T09:24:22.894Z,51.34
2023-02-17T09:26:49.543Z,51.70
2023-02-17T09:29:16.105Z,51.71
2023-02-17T09:31:42.721Z,51.45
2023-02-17T09:34:09.544Z,51.52
2023-02-17T09:36:40.745Z,51.55
2023-02-17T09:39:07.537Z,51.45
2023-02-17T09:41:39.288Z,51.55
2023-02-17T09:44:13.732Z,51.70
2023-02-17T09:46:59.460Z,51.33
2023-02-17T09:49:35.068Z,51.50
2023-02-17T09:52:09.714Z,51.29
2023-02-17T09:54:41.511Z,51.46
2023-02-17T09:57:14.900Z,51.40
2023-02-17T09:59:46.224Z,51.46
2023-02-17T10:02:19.171Z,51.21
2023-02-17T10:04:48.296Z,51.65
2023-02-17T10:07:21.134Z,51.51
2023-02-17T10:09:52.426Z,51.58
2023-02-17T10:12:23.294Z,51.46
2023-02-17T10:14:53.976Z,51.79
2023-02-17T10:17:29.469Z,51.74
2023-02-17T10:20:02.565Z,51.77
2023-02-17T10:22:31.614Z,51.68
2023-02-17T10:25:00.206Z,51.33
2023-02-17T10:27:36.186Z,51.53
2023-02-17T10:30:24.114Z,51.63
2023-02-17T10:33:00.503Z,51.40
2023-02-17T10:35:42.252Z,51.54
2023-02-17T10:38:16.543Z,51.49
2023-02-17T10:40:47.026Z,51.49
2023-02-17T10:43:21.706Z,51.50
2023-02-17T10:45:48.399Z,51.48
2023-02-17T10:48:19.668Z,51.75
2023-02-17T10:50:47.447Z,51.73
2023-02-17T10:53:17.882Z,51.50
2023-02-17T10:55:53.344Z,51.37
2023-02-17T10:58:25.088Z,51.69
2023-02-17T11:00:53.831Z,51.65
2023-02-17T11:03:21.242Z,51.83
2023-02-17T11:05:54.170Z,51.61
2023-02-17T11:08:29.655Z,51.85
2023-02-17T11:11:02.671Z,51.38
2023-02-17T11:13:33.834Z,51.78
2023-02-17T11:16:01.340Z,51.99
2023-02-17T11:18:31.036Z,51.81
2023-02-17T11:21:04.082Z,52.00
2023-02-17T11:23:32.673Z,51.93
2023-02-17T11:26:02.517Z,52.02
2023-02-17T11:28:29.113Z,51.98
2023-02-17T11:30:58.770Z,52.12
2023-02-17T11:33:32.804Z,52.10
2023-02-17T11:36:00.200Z,51.89
2023-02-17T11:38:28.389Z,51.99
2023-02-17T11:40:58.910Z,52.15
2023-02-17T11:43:25.804Z,52.07
2023-02-17T11:46:02.470Z,51.99
2023-02-17T11:48:44.013Z,52.14
2023-02-17T11:51:17.882Z,51.87
2023-02-17T11:53:55.526Z,51.98
2023-02-17T11:56:29.791Z,52.11
2023-02-17T11:59:17.848Z,51.88
2023-02-17T12:02:02.773Z,51.73
2023-02-17T12:04:31.177Z,52.00
2023-02-17T12:07:19.822Z,52.01
2023-02-17T12:09:54.688Z,52.20
2023-02-17T12:12:32.085Z,51.77
2023-02-17T12:15:13.942Z,51.83
2023-02-17T12:17:48.409Z,51.86
2023-02-17T12:20:34.151Z,51.93
2023-02-17T12:23:15.859Z,51.66
2023-02-17T12:25:49.608Z,51.75
2023-02-17T12:28:40.528Z,51.65
2023-02-17T12:31:14.958Z,51.69
2023-02-17T12:33:56.430Z,51.93
2023-02-17T12:36:29.024Z,51.74
2023-02-17T12:39:01.237Z,51.78
2023-02-17T12:41:34.051Z,51.78
2023-02-17T12:44:06.103Z,51.79
2023-02-17T12:46:38.644Z,51.94
2023-02-17T12:49:12.356Z,51.91
2023-02-17T12:51:44.226Z,51.88
2023-02-17T12:54:18.097Z,51.96
2023-02-17T12:56:58.429Z,51.90
2023-02-17T12:59:33.183Z,51.84
2023-02-17T13:02:01.885Z,52.01
2023-02-17T13:04:29.894Z,51.76
2023-02-17T13:07:19.082Z,51.80
2023-02-17T13:09:48.535Z,51.82
2023-02-17T13:12:31.552Z,51.91
2023-02-17T13:15:01.353Z,52.02
2023-02-17T13:17:29.602Z,51.82
2023-02-17T13:20:07.414Z,51.79
2023-02-17T13:22:34.579Z,52.02
2023-02-17T13:25:01.283Z,51.79
2023-02-17T13:27:33.208Z,51.72
2023-02-17T13:30:03.895Z,51.68
2023-02-17T13:32:33.679Z,51.51
2023-02-17T13:35:02.179Z,51.74
2023-02-17T13:37:40.062Z,51.93
2023-02-17T13:40:31.268Z,51.57
2023-02-17T13:43:07.725Z,51.41
2023-02-17T13:45:42.433Z,51.65
2023-02-17T13:48:15.260Z,51.64
2023-02-17T13:50:48.668Z,51.93
2023-02-17T13:53:27.392Z,51.87
2023-02-17T13:55:55.988Z,51.72
2023-02-17T13:58:24.599Z,51.75
2023-02-17T14:00:53.044Z,51.91
2023-02-17T14:03:22.415Z,51.76
2023-02-17T14:05:50.672Z,51.96
2023-02-17T14:08:20.814Z,51.71
2023-02-17T14:10:47.893Z,51.83
2023-02-17T14:13:14.839Z,51.54
2023-02-17T14:15:52.272Z,51.73
2023-02-17T14:18:28.783Z,51.55
2023-02-17T14:21:01.136Z,51.62
2023-02-17T14:23:27.789Z,51.50
2023-02-17T14:25:54.344Z,51.57
2023-02-17T14:28:23.209Z,51.63
2023-02-17T14:30:51.220Z,51.73
2023-02-17T14:33:22.667Z,51.91
2023-02-17T14:35:50.928Z,51.68
2023-02-17T14:38:21.317Z,51.70
2023-02-17T14:40:47.973Z,51.53
2023-02-17T14:43:14.493Z,51.59
2023-02-17T14:45:41.042Z,51.90
2023-02-17T14:48:07.707Z,51.81
2023-02-17T14:50:35.765Z,51.34
2023-02-17T14:53:02.258Z,51.75
2023-02-17T14:55:34.758Z,51.63
2023-02-17T14:58:01.561Z,51.71
2023-02-17T15:00:28.121Z,51.68
2023-02-17T15:02:54.613Z,51.83
2023-02-17T15:05:21.290Z,51.70
2023-02-17T15:07:49.489Z,51.80
2023-02-17T15:10:20.607Z,51.56
2023-02-17T15:12:47.257Z,51.75
2023-02-17T15:15:16.083Z,51.57
2023-02-17T15:17:42.647Z,51.56
2023-02-17T15:20:10.057Z,51.67
2023-02-17T15:22:36.965Z,51.61
2023-02-17T15:25:12.116Z,51.35
2023-02-17T15:27:38.741Z,51.70
2023-02-17T15:30:06.653Z,51.51
2023-02-17T15:32:33.282Z,51.54
2023-02-17T15:34:59.810Z,51.38
2023-02-17T15:37:26.500Z,51.51
2023-02-17T15:39:53.004Z,51.42
2023-02-17T15:42:20.829Z,51.49
2023-02-17T15:44:49.705Z,51.73
2023-02-17T15:47:19.453Z,51.79
2023-02-17T15:49:46.531Z,51.95
2023-02-17T15:52:13.736Z,51.71
2023-02-17T15:54:40.819Z,51.39
2023-02-17T15:57:07.585Z,51.77
2023-02-17T15:59:36.084Z,51.52
2023-02-17T16:02:02.815Z,51.52
2023-02-17T16:04:29.470Z,51.44
2023-02-17T16:06:56.013Z,51.42
2023-02-17T16:09:22.631Z,51.49
2023-02-17T16:11:51.414Z,51.41
2023-02-17T16:14:24.691Z,51.56
2023-02-17T16:16:52.652Z,51.40
2023-02-17T16:19:19.116Z,51.49
2023-02-17T16:21:45.637Z,51.36
2023-02-17T16:24:12.147Z,51.38
2023-02-17T16:26:39.863Z,51.55
2023-02-17T16:29:14.395Z,51.39
2023-02-17T16:31:41.203Z,51.49
2023-02-17T16:34:14.217Z,51.28
2023-02-17T16:36:40.715Z,51.36
2023-02-17T16:39:12.885Z,51.14
2023-02-17T16:41:40.006Z,51.34
2023-02-17T16:44:07.722Z,51.39
2023-02-17T16:46:36.813Z,51.24
2023-02-17T16:49:16.514Z,51.33
2023-02-17T16:51:44.488Z,51.42
2023-02-17T16:54:11.241Z,51.51
2023-02-17T16:56:41.554Z,51.59
2023-02-17T16:59:13.077Z,51.47
2023-02-17T17:01:39.598Z,51.44
2023-02-17T17:04:06.292Z,51.38
2023-02-17T17:06:33.102Z,51.38
2023-02-17T17:09:01.167Z,51.26
2023-02-17T17:11:27.753Z,51.43
2023-02-17T17:13:54.533Z,51.26
2023-02-17T17:16:24.532Z,51.29
2023-02-17T17:18:51.238Z,51.23
2023-02-17T17:21:19.314Z,51.12
2023-02-17T17:23:46.367Z,51.17
2023-02-17T17:26:20.902Z,51.05
2023-02-17T17:28:47.859Z,51.41
2023-02-17T17:31:14.991Z,50.96
2023-02-17T17:33:41.668Z,51.20
2023-02-17T17:36:18.132Z,51.17
2023-02-17T17:38:44.743Z,51.13
2023-02-17T17:41:12.331Z,50.99
2023-02-17T17:43:40.501Z,51.11
2023-02-17T17:46:12.824Z,51.39
2023-02-17T17:48:39.565Z,51.06
2023-02-17T17:51:06.411Z,50.99
2023-02-17T17:53:32.970Z,51.02
2023-02-17T17:55:59.544Z,51.04
2023-02-17T17:58:26.083Z,51.17
2023-02-17T18:00:53.901Z,50.92
2023-02-17T18:03:20.396Z,51.05
2023-02-17T18:05:47.290Z,51.23
2023-02-17T18:08:13.951Z,51.18
2023-02-17T18:10:41.846Z,50.90
2023-02-17T18:13:10.174Z,50.96
2023-02-17T18:15:36.975Z,50.68
2023-02-17T18:18:05.942Z,51.07
2023-02-17T18:20:32.438Z,51.09
2023-02-17T18:22:58.939Z,51.08
2023-02-17T18:25:25.505Z,50.95
2023-02-17T18:27:52.047Z,50.92
2023-02-17T18:30:21.150Z,50.92
2023-02-17T18:32:48.321Z,50.91
2023-02-17T18:35:16.684Z,50.91
2023-02-17T18:37:44.001Z,50.81
2023-02-17T18:40:13.242Z,50.89
2023-02-17T18:42:40.147Z,50.84
2023-02-17T18:45:07.576Z,50.88
2023-02-17T18:47:34.196Z,50.66
2023-02-17T18:50:00.873Z,50.98
2023-02-17T18:52:28.728Z,50.83
2023-02-17T18:54:55.260Z,50.79
2023-02-17T18:57:21.785Z,50.75
2023-02-17T18:59:48.337Z,50.79
2023-02-17T19:02:14.874Z,50.79
2023-02-17T19:04:41.460Z,50.73
2023-02-17T19:07:08.032Z,50.71
2023-02-17T19:09:37.979Z,50.94
2023-02-17T19:12:05.687Z,50.54
2023-02-17T19:14:32.962Z,50.92
2023-02-17T19:16:59.474Z,50.82
2023-02-17T19:19:26.286Z,50.84
2023-02-17T19:21:52.907Z,50.82
2023-02-17T19:24:19.436Z,50.75
2023-02-17T19:26:47.249Z,50.88
2023-02-17T19:29:13.753Z,50.50
2023-02-17T19:31:40.500Z,50.75
2023-02-17T19:34:07.109Z,50.71
2023-02-17T19:36:33.599Z,50.55
2023-02-17T19:39:00.113Z,50.81
2023-02-17T19:41:26.656Z,50.66
2023-02-17T19:43:54.556Z,50.60
2023-02-17T19:46:21.402Z,50.54
2023-02-17T19:48:48.066Z,50.44
2023-02-17T19:51:14.753Z,50.61
2023-02-17T19:53:42.327Z,50.63
2023-02-17T19:56:12.200Z,50.58
2023-02-17T19:58:39.945Z,50.47
2023-02-17T20:01:10.497Z,50.38
2023-02-17T20:03:37.429Z,50.63
2023-02-17T20:06:06.794Z,50.43
2023-02-17T20:08:33.476Z,50.42
2023-02-17T20:11:00.054Z,50.65
2023-02-17T20:13:28.682Z,50.52
2023-02-17T20:15:59.409Z,50.65
2023-02-17T20:18:27.626Z,50.63
2023-02-17T20:20:54.445Z,50.45
2023-02-17T20:23:21.597Z,50.50
2023-02-17T20:25:48.665Z,50.67
2023-02-17T20:28:15.184Z,50.46
2023-02-17T20:30:41.722Z,50.42
2023-02-17T20:33:08.324Z,50.40
2023-02-17T20:35:36.430Z,50.45
2023-02-17T20:38:03.006Z,50.33
2023-02-17T20:40:29.542Z,50.44
2023-02-17T20:42:56.093Z,50.40
2023-02-17T20:45:22.825Z,50.29
2023-02-17T20:47:49.432Z,50.56
2023-02-17T20:50:20.912Z,50.21
2023-02-17T20:52:48.783Z,50.50
2023-02-17T20:55:17.167Z,50.40
2023-02-17T20:57:44.182Z,50.24
2023-02-17T21:00:14.411Z,50.31
2023-02-17T21:02:40.973Z,50.60
2023-02-17T21:05:07.594Z,50.30
2023-02-17T21:07:34.189Z,50.23
2023-02-17T21:10:02.172Z,50.36
2023-02-17T21:12:28.721Z,50.34
2023-02-17T21:14:55.206Z,50.19
2023-02-17T21:17:21.708Z,50.35
2023-02-17T21:19:48.614Z,50.11
2023-02-17T21:22:15.283Z,50.30
2023-02-17T21:24:41.829Z,50.28
2023-02-17T21:27:09.646Z,50.21
2023-02-17T21:29:36.231Z,50.10
2023-02-17T21:32:02.852Z,50.13
2023-02-17T21:34:29.417Z,50.07
2023-02-17T21:36:55.956Z,50.19
2023-02-17T21:39:23.198Z,49.92
2023-02-17T21:41:49.700Z,50.17
2023-02-17T21:44:17.533Z,50.13
2023-02-17T21:46:44.364Z,50.31
2023-02-17T21:49:12.097Z,50.12
2023-02-17T21:51:39.752Z,50.05
2023-02-17T21:54:07.225Z,50.18
2023-02-17T21:56:34.058Z,50.17
2023-02-17T21:59:00.574Z,50.03
2023-02-17T22:01:29.343Z,49.76
2023-02-17T22:03:56.301Z,50.10
2023-02-17T22:06:25.845Z,49.91
2023-02-17T22:08:53.034Z,50.02
2023-02-17T22:11:22.051Z,50.18
2023-02-17T22:13:48.753Z,49.90
2023-02-17T22:16:15.795Z,50.26
2023-02-17T22:18:43.638Z,50.21
2023-02-17T22:21:12.401Z,50.14
2023-02-17T22:23:39.916Z,50.25
2023-02-17T22:26:09.549Z,50.04
2023-02-17T22:28:36.582Z,50.23
2023-02-17T22:31:03.853Z,50.05
2023-02-17T22:33:30.855Z,49.92
2023-02-17T22:36:00.464Z,49.90
2023-02-17T22:38:27.322Z,50.16
2023-02-17T22:40:53.932Z,50.04
2023-02-17T22:43:20.761Z,50.12
2023-02-17T22:45:47.598Z,50.10
2023-02-17T22:48:14.401Z,50.04
2023-02-17T22:50:41.712Z,50.06
2023-02-17T22:53:09.764Z,49.87
2023-02-17T22:55:36.240Z,50.15
2023-02-17T22:58:02.936Z,50.08
2023-02-17T23:00:29.584Z,49.92
2023-02-17T23:02:56.222Z,50.18
2023-02-17T23:05:23.062Z,50.20
2023-02-17T23:07:49.719Z,49.99
2023-02-17T23:10:17.743Z,50.09
2023-02-17T23:12:44.245Z,49.92
2023-02-17T23:15:11.437Z,49.91
2023-02-17T23:17:38.051Z,50.20
2023-02-17T23:20:05.246Z,50.05
2023-02-17T23:22:31.741Z,49.91
2023-02-17T23:24:58.266Z,49.92
2023-02-17T23:27:26.125Z,49.89
2023-02-17T23:29:52.731Z,49.93
2023-02-17T23:32:19.213Z,49.99
2023-02-17T23:34:45.721Z,50.05
2023-02-17T23:37:12.375Z,50.01
2023-02-17T23:39:38.879Z,50.24
2023-02-17T23:42:05.957Z,49.89
2023-02-17T23:44:33.770Z,49.86
2023-02-17T23:47:00.316Z,49.76
2023-02-17T23:49:26.836Z,49.92
2023-02-17T23:51:53.320Z,50.06
2023-02-17T23:54:19.773Z,49.83
2023-02-17T23:56:46.857Z,50.18
2023-02-17T23:59:13.351Z,49.92
